createdAt,value
2022-08-03T00:02:54.374Z,3.38
2022-08-03T00:06:04.579Z,3.38
2022-08-03T00:09:11.206Z,3.38
2022-08-03T00:12:16.801Z,4.13
2022-08-03T00:15:22.601Z,3.30
2022-08-03T00:18:29.250Z,3.78
2022-08-03T00:21:34.853Z,4.20
2022-08-03T00:24:40.634Z,3.47
2022-08-03T00:27:46.215Z,3.78
2022-08-03T00:30:56.126Z,4.45
2022-08-03T00:34:03.385Z,4.25
2022-08-03T00:37:09.923Z,4.72
2022-08-03T00:40:17.935Z,5.07
2022-08-03T00:43:28.060Z,4.20
2022-08-03T00:46:33.954Z,4.47
2022-08-03T00:49:41.407Z,4.50
2022-08-03T00:52:47.869Z,6.45
2022-08-03T00:55:53.474Z,6.25
2022-08-03T00:58:59.698Z,4.88
2022-08-03T01:02:05.445Z,4.88
2022-08-03T01:05:11.433Z,6.13
2022-08-03T01:08:31.801Z,4.95
2022-08-03T01:12:00.713Z,4.38
2022-08-03T01:15:43.448Z,4.68
2022-08-03T01:19:03.685Z,5.65
2022-08-03T01:23:01.132Z,4.95
2022-08-03T01:26:12.488Z,5.30
2022-08-03T01:29:17.899Z,4.43
2022-08-03T01:32:58.119Z,4.53
2022-08-03T01:36:11.884Z,5.07
2022-08-03T01:39:19.677Z,4.72
2022-08-03T01:42:27.731Z,5.15
2022-08-03T01:45:34.777Z,5.90
2022-08-03T01:48:43.531Z,6.10
2022-08-03T01:51:58.401Z,6.55
2022-08-03T01:55:12.608Z,7.68
2022-08-03T01:58:22.218Z,7.65
2022-08-03T02:02:31.987Z,7.50
2022-08-03T02:04:58.018Z,8.18
2022-08-03T02:08:05.577Z,7.28
2022-08-03T02:11:12.728Z,7.40
2022-08-03T02:14:20.874Z,6.68
2022-08-03T02:17:39.249Z,7.20
2022-08-03T02:20:47.701Z,6.53
2022-08-03T02:23:53.503Z,6.82
2022-08-03T02:27:00.136Z,6.22
2022-08-03T02:30:11.155Z,6.70
2022-08-03T02:33:27.431Z,6.10
2022-08-03T02:36:38.077Z,7.35
2022-08-03T02:39:45.400Z,7.38
2022-08-03T02:42:55.565Z,7.28
2022-08-03T02:46:01.632Z,6.63
2022-08-03T02:49:49.759Z,6.18
2022-08-03T02:52:36.181Z,5.70
2022-08-03T02:55:45.840Z,6.07
2022-08-03T02:58:53.503Z,5.53
2022-08-03T03:02:00.824Z,5.45
2022-08-03T03:05:52.990Z,5.60
2022-08-03T03:08:34.005Z,5.40
2022-08-03T03:11:41.915Z,4.22
2022-08-03T03:14:47.612Z,4.57
2022-08-03T03:17:54.032Z,4.80
2022-08-03T03:21:01.695Z,5.07
2022-08-03T03:24:09.612Z,3.97
2022-08-03T03:27:16.653Z,4.05
2022-08-03T03:30:22.992Z,4.78
2022-08-03T03:33:28.893Z,4.55
2022-08-03T03:36:34.592Z,4.40
2022-08-03T03:39:40.137Z,4.53
2022-08-03T03:42:46.075Z,3.85
2022-08-03T03:45:54.135Z,3.90
2022-08-03T03:48:59.704Z,3.92
2022-08-03T03:52:05.360Z,3.28
2022-08-03T03:55:11.032Z,3.20
2022-08-03T03:58:17.373Z,3.60
2022-08-03T04:01:23.495Z,4.43
2022-08-03T04:04:47.285Z,3.38
2022-08-03T04:08:19.732Z,3.95
2022-08-03T04:11:32.167Z,3.90
2022-08-03T04:14:39.607Z,3.58
2022-08-03T04:17:47.202Z,3.45
2022-08-03T04:20:54.136Z,3.40
2022-08-03T04:24:03.972Z,3.90
2022-08-03T04:27:13.270Z,3.20
2022-08-03T04:30:19.851Z,5.00
2022-08-03T04:33:29.475Z,5.18
2022-08-03T04:36:48.641Z,4.63
2022-08-03T04:39:58.295Z,5.03
2022-08-03T04:43:05.721Z,5.32
2022-08-03T04:46:12.463Z,5.20
2022-08-03T04:49:20.338Z,4.68
2022-08-03T04:52:26.118Z,4.90
2022-08-03T04:55:32.901Z,4.22
2022-08-03T04:58:38.869Z,3.55
2022-08-03T05:01:44.512Z,3.38
2022-08-03T05:04:50.746Z,3.50
2022-08-03T05:07:56.549Z,3.85
2022-08-03T05:11:02.335Z,3.90
2022-08-03T05:14:07.612Z,3.88
2022-08-03T05:17:13.003Z,4.13
2022-08-03T05:20:18.985Z,3.75
2022-08-03T05:23:24.420Z,3.70
2022-08-03T05:26:29.980Z,3.55
2022-08-03T05:29:35.937Z,3.75
2022-08-03T05:32:41.471Z,2.63
2022-08-03T05:35:55.643Z,3.08
2022-08-03T05:39:09.666Z,2.85
2022-08-03T05:42:17.547Z,3.10
2022-08-03T05:45:28.156Z,3.00
2022-08-03T05:51:39.550Z,2.67
2022-08-03T05:54:56.469Z,2.63
2022-08-03T05:58:04.430Z,3.30
2022-08-03T06:01:10.822Z,3.47
2022-08-03T06:04:16.794Z,3.08
2022-08-03T06:07:22.520Z,4.38
2022-08-03T06:10:37.133Z,4.82
2022-08-03T06:13:44.653Z,4.70
2022-08-03T06:16:50.034Z,6.53
2022-08-03T06:19:55.675Z,4.65
2022-08-03T06:23:01.531Z,4.45
2022-08-03T06:26:07.309Z,4.13
2022-08-03T06:29:13.178Z,3.70
2022-08-03T06:32:19.369Z,3.75
2022-08-03T06:35:28.172Z,4.60
2022-08-03T06:38:33.925Z,3.72
2022-08-03T06:41:44.558Z,3.72
2022-08-03T06:44:51.841Z,3.63
2022-08-03T06:48:05.864Z,4.05
2022-08-03T06:51:11.946Z,3.42
2022-08-03T06:54:18.039Z,3.22
2022-08-03T06:57:23.789Z,3.47
2022-08-03T07:00:29.820Z,2.80
2022-08-03T07:03:35.501Z,3.08
2022-08-03T07:06:41.737Z,3.38
2022-08-03T07:09:56.753Z,2.95
2022-08-03T07:13:05.240Z,3.22
2022-08-03T07:16:10.800Z,3.05
2022-08-03T07:19:16.864Z,2.80
2022-08-03T07:22:22.453Z,2.92
2022-08-03T07:25:28.299Z,3.40
2022-08-03T07:28:34.467Z,3.20
2022-08-03T07:31:40.499Z,2.33
2022-08-03T07:34:46.197Z,2.10
2022-08-03T07:37:54.387Z,2.25
2022-08-03T07:41:00.510Z,2.42
2022-08-03T07:44:06.224Z,2.50
2022-08-03T07:47:22.522Z,2.92
2022-08-03T07:50:28.932Z,2.28
2022-08-03T07:53:37.837Z,2.63
2022-08-03T07:56:53.789Z,3.25
2022-08-03T08:00:02.209Z,2.28
2022-08-03T08:03:17.488Z,2.50
2022-08-03T08:06:23.288Z,2.38
2022-08-03T08:09:28.835Z,1.70
2022-08-03T08:12:35.327Z,1.88
2022-08-03T08:15:43.691Z,2.83
2022-08-03T08:18:49.779Z,1.73
2022-08-03T08:22:02.408Z,1.70
2022-08-03T08:25:08.822Z,1.90
2022-08-03T08:28:31.871Z,1.88
2022-08-03T08:31:39.616Z,1.80
2022-08-03T08:34:45.294Z,2.03
2022-08-03T08:37:51.472Z,1.98
2022-08-03T08:40:57.350Z,2.10
2022-08-03T08:44:04.078Z,1.90
2022-08-03T08:47:10.725Z,2.10
2022-08-03T08:50:27.807Z,1.83
2022-08-03T08:53:37.661Z,1.60
2022-08-03T08:56:45.275Z,1.90
2022-08-03T08:59:53.479Z,1.55
2022-08-03T09:03:03.062Z,1.50
2022-08-03T09:06:08.898Z,1.38
2022-08-03T09:10:08.207Z,1.48
2022-08-03T09:12:45.580Z,1.50
2022-08-03T09:16:11.650Z,1.60
2022-08-03T09:19:17.316Z,1.40
2022-08-03T09:22:22.954Z,1.52
2022-08-03T09:25:40.569Z,1.50
2022-08-03T09:28:59.943Z,1.35
2022-08-03T09:32:11.644Z,1.20
2022-08-03T09:35:23.783Z,1.20
2022-08-03T09:39:01.501Z,1.35
2022-08-03T09:42:18.887Z,1.10
2022-08-03T09:45:30.447Z,1.67
2022-08-03T09:48:38.032Z,1.27
2022-08-03T09:52:31.737Z,1.30
2022-08-03T09:56:30.746Z,2.33
2022-08-03T09:58:47.692Z,1.67
2022-08-03T10:01:54.503Z,1.05
2022-08-03T10:05:00.267Z,1.42
2022-08-03T10:08:15.679Z,1.25
2022-08-03T10:11:40.851Z,1.40
2022-08-03T10:14:47.384Z,1.30
2022-08-03T10:17:52.783Z,1.30
2022-08-03T10:21:08.978Z,1.20
2022-08-03T10:24:17.526Z,1.48
2022-08-03T10:27:24.925Z,1.30
2022-08-03T10:30:32.711Z,1.20
2022-08-03T10:33:51.719Z,1.60
2022-08-03T10:37:00.421Z,1.30
2022-08-03T10:40:08.844Z,1.27
2022-08-03T10:43:20.199Z,1.42
2022-08-03T10:46:28.062Z,1.33
2022-08-03T10:49:35.638Z,1.15
2022-08-03T10:53:39.376Z,1.25
2022-08-03T10:57:13.638Z,1.63
2022-08-03T11:00:26.240Z,1.02
2022-08-03T11:03:33.185Z,0.93
2022-08-03T11:06:38.841Z,1.15
2022-08-03T11:09:49.384Z,1.55
2022-08-03T11:13:07.716Z,0.95
2022-08-03T11:16:22.458Z,1.20
2022-08-03T11:19:57.880Z,1.20
2022-08-03T11:23:04.281Z,1.38
2022-08-03T11:26:13.567Z,1.33
2022-08-03T11:29:29.864Z,1.33
2022-08-03T11:32:38.655Z,1.00
2022-08-03T11:36:04.452Z,1.20
2022-08-03T11:39:16.666Z,1.02
2022-08-03T11:42:22.603Z,1.35
2022-08-03T11:45:28.324Z,1.48
2022-08-03T11:48:38.405Z,1.50
2022-08-03T11:51:44.986Z,1.23
2022-08-03T11:54:56.626Z,1.65
2022-08-03T11:59:12.868Z,1.25
2022-08-03T12:01:28.323Z,1.35
2022-08-03T12:04:54.839Z,1.10
2022-08-03T12:08:04.964Z,1.20
2022-08-03T12:11:14.122Z,1.13
2022-08-03T12:14:49.164Z,1.38
2022-08-03T12:17:45.920Z,1.65
2022-08-03T12:20:54.820Z,1.10
2022-08-03T12:24:02.574Z,1.25
2022-08-03T12:27:07.870Z,1.30
2022-08-03T12:30:13.803Z,1.23
2022-08-03T12:33:27.639Z,1.52
2022-08-03T12:36:35.556Z,1.20
2022-08-03T12:40:01.722Z,1.20
2022-08-03T12:43:16.310Z,1.30
2022-08-03T12:46:21.563Z,1.30
2022-08-03T12:49:30.356Z,1.75
2022-08-03T12:52:45.286Z,1.30
2022-08-03T12:56:05.025Z,1.10
2022-08-03T12:59:25.447Z,1.40
2022-08-03T13:02:38.498Z,1.17
2022-08-03T13:05:46.118Z,1.20
2022-08-03T13:09:12.149Z,1.60
2022-08-03T13:12:20.915Z,1.50
2022-08-03T13:15:28.463Z,1.50
2022-08-03T13:18:40.067Z,1.08
2022-08-03T13:21:53.577Z,1.33
2022-08-03T13:25:09.902Z,1.45
2022-08-03T13:28:15.415Z,1.20
2022-08-03T13:31:21.598Z,1.17
2022-08-03T13:34:27.327Z,1.48
2022-08-03T13:37:32.927Z,1.50
2022-08-03T13:40:41.639Z,1.60
2022-08-03T13:43:47.304Z,1.27
2022-08-03T13:46:52.899Z,1.50
2022-08-03T13:50:01.914Z,1.25
2022-08-03T13:53:08.231Z,1.30
2022-08-03T13:56:13.575Z,1.40
2022-08-03T13:59:20.660Z,1.30
2022-08-03T14:02:26.623Z,1.67
2022-08-03T14:05:32.532Z,1.60
2022-08-03T14:08:38.290Z,1.70
2022-08-03T14:12:05.232Z,1.40
2022-08-03T14:15:13.336Z,1.30
2022-08-03T14:18:28.915Z,1.23
2022-08-03T14:21:39.577Z,1.38
2022-08-03T14:24:45.421Z,1.13
2022-08-03T14:27:51.625Z,2.28
2022-08-03T14:30:57.471Z,1.30
2022-08-03T14:34:03.174Z,1.20
2022-08-03T14:37:08.924Z,1.60
2022-08-03T14:40:14.432Z,1.38
2022-08-03T14:43:22.972Z,1.10
2022-08-03T14:46:28.615Z,1.30
2022-08-03T14:50:36.345Z,1.45
2022-08-03T14:52:59.805Z,1.73
2022-08-03T14:56:11.167Z,2.33
2022-08-03T14:59:16.935Z,1.48
2022-08-03T15:02:23.785Z,1.45
2022-08-03T15:05:29.906Z,1.20
2022-08-03T15:08:35.558Z,1.50
2022-08-03T15:11:41.858Z,1.27
2022-08-03T15:14:47.550Z,2.58
2022-08-03T15:17:59.717Z,1.73
2022-08-03T15:21:07.135Z,1.60
2022-08-03T15:24:26.832Z,1.75
2022-08-03T15:27:32.732Z,1.70
2022-08-03T15:30:38.856Z,1.85
2022-08-03T15:33:44.601Z,2.08
2022-08-03T15:36:50.250Z,1.55
2022-08-03T15:39:58.163Z,1.65
2022-08-03T15:43:05.805Z,1.35
2022-08-03T15:49:37.289Z,1.20
2022-08-03T15:52:42.930Z,1.58
2022-08-03T15:55:48.503Z,1.80
2022-08-03T15:59:09.239Z,1.30
2022-08-03T16:02:19.807Z,2.20
2022-08-03T16:05:25.315Z,1.75
2022-08-03T16:08:31.696Z,1.90
2022-08-03T16:11:37.123Z,1.70
2022-08-03T16:14:51.888Z,1.63
2022-08-03T16:17:59.103Z,1.60
2022-08-03T16:21:04.874Z,1.38
2022-08-03T16:24:17.341Z,1.90
2022-08-03T16:27:58.161Z,1.30
2022-08-03T16:30:58.994Z,1.38
2022-08-03T16:34:04.959Z,1.52
2022-08-03T16:37:36.521Z,1.70
2022-08-03T16:40:37.577Z,1.27
2022-08-03T16:43:43.130Z,1.67
2022-08-03T16:46:49.038Z,1.55
2022-08-03T16:49:56.550Z,2.05
2022-08-03T16:53:09.080Z,1.20
2022-08-03T16:56:15.111Z,1.70
2022-08-03T16:59:20.149Z,2.25
2022-08-03T17:02:48.374Z,1.30
2022-08-03T17:05:54.269Z,1.60
2022-08-03T17:09:11.511Z,1.73
2022-08-03T17:12:17.256Z,1.38
2022-08-03T17:15:38.384Z,1.50
2022-08-03T17:18:57.125Z,1.10
2022-08-03T17:22:13.465Z,1.10
2022-08-03T17:26:01.736Z,1.70
2022-08-03T17:28:57.438Z,1.00
2022-08-03T17:32:09.244Z,1.27
2022-08-03T17:35:15.809Z,1.20
2022-08-03T17:38:26.755Z,1.30
2022-08-03T17:41:38.383Z,1.48
2022-08-03T17:44:58.072Z,1.92
2022-08-03T17:48:04.639Z,1.80
2022-08-03T17:51:24.360Z,1.70
2022-08-03T17:55:57.601Z,2.60
2022-08-03T17:58:25.922Z,1.98
2022-08-03T18:02:22.290Z,1.48
2022-08-03T18:06:10.956Z,1.27
2022-08-03T18:09:05.131Z,1.35
2022-08-03T18:12:34.947Z,1.20
2022-08-03T18:15:47.644Z,1.10
2022-08-03T18:18:57.371Z,1.70
2022-08-03T18:22:05.231Z,1.20
2022-08-03T18:25:11.096Z,1.92
2022-08-03T18:32:02.244Z,1.10
2022-08-03T18:35:13.753Z,1.40
2022-08-03T18:38:20.897Z,2.05
2022-08-03T18:41:32.257Z,1.70
2022-08-03T18:44:54.095Z,1.58
2022-08-03T18:48:32.815Z,1.60
2022-08-03T18:51:42.960Z,1.67
2022-08-03T18:55:20.980Z,2.00
2022-08-03T18:58:52.550Z,2.30
2022-08-03T19:02:05.869Z,2.70
2022-08-03T19:05:19.566Z,2.70
2022-08-03T19:08:49.679Z,2.95
2022-08-03T19:12:28.316Z,1.90
2022-08-03T19:15:36.567Z,1.83
2022-08-03T19:18:52.062Z,1.50
2022-08-03T19:21:58.692Z,1.60
2022-08-03T19:25:07.126Z,2.30
2022-08-03T19:28:18.535Z,1.65
2022-08-03T19:31:31.220Z,1.88
2022-08-03T19:34:40.935Z,2.47
2022-08-03T19:37:52.901Z,2.60
2022-08-03T19:41:03.762Z,2.45
2022-08-03T19:44:19.993Z,2.55
2022-08-03T19:47:34.182Z,2.40
2022-08-03T19:50:44.377Z,2.65
2022-08-03T19:53:52.397Z,2.65
2022-08-03T19:57:01.907Z,2.42
2022-08-03T20:00:12.641Z,4.13
2022-08-03T20:03:21.900Z,3.80
2022-08-03T20:06:29.274Z,3.00
2022-08-03T20:09:36.325Z,2.75
2022-08-03T20:12:50.650Z,2.22
2022-08-03T20:15:56.598Z,2.20
2022-08-03T20:19:02.701Z,2.70
2022-08-03T20:22:27.847Z,3.42
2022-08-03T20:25:39.540Z,2.65
2022-08-03T20:29:10.000Z,2.20
2022-08-03T20:32:18.226Z,2.15
2022-08-03T20:35:23.575Z,1.67
2022-08-03T20:38:29.135Z,2.40
2022-08-03T20:41:35.965Z,1.92
2022-08-03T20:44:42.037Z,2.67
2022-08-03T20:47:54.265Z,2.35
2022-08-03T20:50:59.986Z,4.28
2022-08-03T20:54:22.719Z,3.38
2022-08-03T20:57:33.515Z,2.65
2022-08-03T21:00:38.925Z,2.38
2022-08-03T21:03:55.505Z,3.05
2022-08-03T21:07:16.628Z,2.53
2022-08-03T21:10:28.610Z,3.28
2022-08-03T21:13:04.889Z,1.30
2022-08-03T21:13:52.390Z,3.63
2022-08-03T21:16:59.385Z,3.30
2022-08-03T21:20:11.244Z,3.20
2022-08-03T21:23:40.008Z,2.92
2022-08-03T21:26:49.748Z,2.88
2022-08-03T21:29:55.316Z,3.42
2022-08-03T21:33:01.299Z,3.60
2022-08-03T21:36:07.795Z,3.88
2022-08-03T21:39:13.428Z,3.63
2022-08-03T21:42:20.516Z,4.20
2022-08-03T21:45:25.989Z,5.60
2022-08-03T21:48:41.899Z,3.55
2022-08-03T21:51:50.117Z,3.20
2022-08-03T21:54:59.037Z,3.58
2022-08-03T21:58:06.239Z,4.05
2022-08-03T22:01:13.979Z,3.63
2022-08-03T22:04:55.248Z,3.40
2022-08-03T22:07:47.780Z,3.80
2022-08-03T22:10:53.157Z,3.85
2022-08-03T22:14:02.116Z,3.03
2022-08-03T22:17:08.071Z,3.00
2022-08-03T22:20:15.321Z,2.40
2022-08-03T22:23:23.943Z,2.70
2022-08-03T22:26:35.365Z,2.75
2022-08-03T22:29:43.681Z,2.85
2022-08-03T22:32:53.550Z,2.30
2022-08-03T22:36:00.644Z,2.20
2022-08-03T22:39:06.421Z,2.53
2022-08-03T22:42:13.358Z,2.53
2022-08-03T22:46:07.945Z,3.33
2022-08-03T22:48:48.369Z,2.80
2022-08-03T22:51:54.656Z,3.00
2022-08-03T22:55:05.355Z,3.30
2022-08-03T22:58:10.813Z,2.78
2022-08-03T23:01:21.022Z,2.80
2022-08-03T23:04:29.297Z,2.85
2022-08-03T23:07:38.614Z,2.78
2022-08-03T23:10:47.697Z,2.70
2022-08-03T23:13:56.127Z,2.83
2022-08-03T23:17:04.931Z,2.63
2022-08-03T23:20:10.766Z,2.80
2022-08-03T23:23:16.682Z,2.55
2022-08-03T23:26:26.617Z,2.67
2022-08-03T23:29:36.529Z,3.17
2022-08-03T23:32:43.816Z,3.00
2022-08-03T23:36:20.177Z,2.95
2022-08-03T23:39:29.067Z,2.47
2022-08-03T23:42:43.074Z,2.70
2022-08-03T23:45:49.819Z,2.47
2022-08-03T23:49:00.137Z,2.85
2022-08-03T23:52:14.785Z,3.22
2022-08-03T23:55:43.330Z,3.00
2022-08-03T23:59:21.993Z,3.90
